sensor_id;sensor_type;location;lat;lon;timestamp;P1;durP1;ratioP1;P2;durP2;ratioP2
8058;SDS011;4072;42.668;23.396;2023-08-21T00:00:07;12.13;;;7.20;;
8058;SDS011;4072;42.668;23.396;2023-08-21T00:02:36;9.47;;;6.70;;
8058;SDS011;4072;42.668;23.396;2023-08-21T00:05:04;7.43;;;6.53;;
8058;SDS011;4072;42.668;23.396;2023-08-21T00:07:33;7.07;;;6.38;;
8058;SDS011;4072;42.668;23.396;2023-08-21T00:10:02;11.43;;;7.03;;
8058;SDS011;4072;42.668;23.396;2023-08-21T00:12:32;9.53;;;6.80;;
8058;SDS011;4072;42.668;23.396;2023-08-21T00:15:02;8.87;;;6.87;;
8058;SDS011;4072;42.668;23.396;2023-08-21T00:17:34;10.02;;;6.60;;
8058;SDS011;4072;42.668;23.396;2023-08-21T00:20:02;8.93;;;7.00;;
8058;SDS011;4072;42.668;23.396;2023-08-21T00:22:31;8.80;;;7.57;;
8058;SDS011;4072;42.668;23.396;2023-08-21T00:25:00;9.87;;;6.93;;
8058;SDS011;4072;42.668;23.396;2023-08-21T00:27:28;7.32;;;6.57;;
8058;SDS011;4072;42.668;23.396;2023-08-21T00:29:58;8.83;;;7.17;;
8058;SDS011;4072;42.668;23.396;2023-08-21T00:32:27;8.87;;;6.90;;
8058;SDS011;4072;42.668;23.396;2023-08-21T00:34:56;8.77;;;7.30;;
8058;SDS011;4072;42.668;23.396;2023-08-21T00:37:24;7.72;;;6.93;;
8058;SDS011;4072;42.668;23.396;2023-08-21T00:39:53;9.03;;;6.97;;
8058;SDS011;4072;42.668;23.396;2023-08-21T00:42:21;8.90;;;8.03;;
8058;SDS011;4072;42.668;23.396;2023-08-21T00:44:49;8.00;;;6.77;;
8058;SDS011;4072;42.668;23.396;2023-08-21T00:47:19;9.10;;;7.70;;
8058;SDS011;4072;42.668;23.396;2023-08-21T00:49:47;7.97;;;7.07;;
8058;SDS011;4072;42.668;23.396;2023-08-21T00:52:16;9.60;;;6.90;;
8058;SDS011;4072;42.668;23.396;2023-08-21T00:54:45;7.90;;;7.17;;
8058;SDS011;4072;42.668;23.396;2023-08-21T00:57:14;11.57;;;7.00;;
8058;SDS011;4072;42.668;23.396;2023-08-21T00:59:42;8.23;;;7.47;;
8058;SDS011;4072;42.668;23.396;2023-08-21T01:02:11;8.48;;;6.57;;
8058;SDS011;4072;42.668;23.396;2023-08-21T01:04:41;8.32;;;7.00;;
8058;SDS011;4072;42.668;23.396;2023-08-21T01:07:10;7.93;;;7.13;;
8058;SDS011;4072;42.668;23.396;2023-08-21T01:09:39;9.33;;;7.37;;
8058;SDS011;4072;42.668;23.396;2023-08-21T01:12:12;12.07;;;6.87;;
8058;SDS011;4072;42.668;23.396;2023-08-21T01:14:51;9.10;;;6.83;;
8058;SDS011;4072;42.668;23.396;2023-08-21T01:17:26;8.57;;;6.67;;
8058;SDS011;4072;42.668;23.396;2023-08-21T01:19:59;8.67;;;6.50;;
8058;SDS011;4072;42.668;23.396;2023-08-21T01:22:35;7.23;;;6.53;;
8058;SDS011;4072;42.668;23.396;2023-08-21T01:25:06;8.80;;;6.80;;
8058;SDS011;4072;42.668;23.396;2023-08-21T01:27:37;8.90;;;6.47;;
8058;SDS011;4072;42.668;23.396;2023-08-21T01:30:08;8.23;;;6.73;;
8058;SDS011;4072;42.668;23.396;2023-08-21T01:32:38;10.70;;;7.00;;
8058;SDS011;4072;42.668;23.396;2023-08-21T01:35:10;8.60;;;7.30;;
8058;SDS011;4072;42.668;23.396;2023-08-21T01:37:39;8.63;;;7.73;;
8058;SDS011;4072;42.668;23.396;2023-08-21T01:40:11;14.13;;;9.37;;
8058;SDS011;4072;42.668;23.396;2023-08-21T01:42:39;9.13;;;8.23;;
8058;SDS011;4072;42.668;23.396;2023-08-21T01:45:09;7.97;;;7.27;;
8058;SDS011;4072;42.668;23.396;2023-08-21T01:47:37;10.87;;;8.37;;
8058;SDS011;4072;42.668;23.396;2023-08-21T01:50:06;10.23;;;8.17;;
8058;SDS011;4072;42.668;23.396;2023-08-21T01:52:35;8.50;;;7.30;;
8058;SDS011;4072;42.668;23.396;2023-08-21T01:55:04;9.10;;;8.20;;
8058;SDS011;4072;42.668;23.396;2023-08-21T01:57:35;10.03;;;7.97;;
8058;SDS011;4072;42.668;23.396;2023-08-21T02:00:04;13.37;;;10.27;;
8058;SDS011;4072;42.668;23.396;2023-08-21T02:02:33;8.70;;;7.97;;
8058;SDS011;4072;42.668;23.396;2023-08-21T02:05:02;9.67;;;8.67;;
8058;SDS011;4072;42.668;23.396;2023-08-21T02:07:31;11.40;;;8.27;;
8058;SDS011;4072;42.668;23.396;2023-08-21T02:10:00;10.67;;;8.50;;
8058;SDS011;4072;42.668;23.396;2023-08-21T02:12:28;10.13;;;9.23;;
8058;SDS011;4072;42.668;23.396;2023-08-21T02:14:58;12.37;;;8.90;;
8058;SDS011;4072;42.668;23.396;2023-08-21T02:17:26;9.70;;;8.77;;
8058;SDS011;4072;42.668;23.396;2023-08-21T02:19:54;9.67;;;8.77;;
8058;SDS011;4072;42.668;23.396;2023-08-21T02:22:22;11.63;;;10.17;;
8058;SDS011;4072;42.668;23.396;2023-08-21T02:24:51;10.07;;;9.07;;
8058;SDS011;4072;42.668;23.396;2023-08-21T02:27:19;8.90;;;8.10;;
8058;SDS011;4072;42.668;23.396;2023-08-21T02:29:47;9.37;;;8.47;;
8058;SDS011;4072;42.668;23.396;2023-08-21T02:32:17;10.37;;;9.27;;
8058;SDS011;4072;42.668;23.396;2023-08-21T02:34:46;8.80;;;7.40;;
8058;SDS011;4072;42.668;23.396;2023-08-21T02:37:14;11.03;;;7.77;;
8058;SDS011;4072;42.668;23.396;2023-08-21T02:39:42;8.80;;;7.00;;
8058;SDS011;4072;42.668;23.396;2023-08-21T02:42:10;9.70;;;7.60;;
8058;SDS011;4072;42.668;23.396;2023-08-21T02:44:38;10.20;;;7.37;;
8058;SDS011;4072;42.668;23.396;2023-08-21T02:47:06;8.70;;;8.00;;
8058;SDS011;4072;42.668;23.396;2023-08-21T02:49:36;8.67;;;7.70;;
8058;SDS011;4072;42.668;23.396;2023-08-21T02:52:04;8.83;;;7.10;;
8058;SDS011;4072;42.668;23.396;2023-08-21T02:54:32;9.57;;;6.43;;
8058;SDS011;4072;42.668;23.396;2023-08-21T02:57:00;7.87;;;6.10;;
8058;SDS011;4072;42.668;23.396;2023-08-21T02:59:29;11.20;;;7.90;;
8058;SDS011;4072;42.668;23.396;2023-08-21T03:01:57;8.70;;;6.60;;
8058;SDS011;4072;42.668;23.396;2023-08-21T03:04:25;9.80;;;6.77;;
8058;SDS011;4072;42.668;23.396;2023-08-21T03:06:55;10.27;;;7.93;;
8058;SDS011;4072;42.668;23.396;2023-08-21T03:09:24;6.53;;;5.93;;
8058;SDS011;4072;42.668;23.396;2023-08-21T03:11:52;7.30;;;6.33;;
8058;SDS011;4072;42.668;23.396;2023-08-21T03:14:20;7.17;;;6.47;;
8058;SDS011;4072;42.668;23.396;2023-08-21T03:16:48;7.27;;;6.67;;
8058;SDS011;4072;42.668;23.396;2023-08-21T03:19:17;6.83;;;6.23;;
8058;SDS011;4072;42.668;23.396;2023-08-21T03:21:45;8.17;;;7.30;;
8058;SDS011;4072;42.668;23.396;2023-08-21T03:24:16;7.23;;;6.53;;
8058;SDS011;4072;42.668;23.396;2023-08-21T03:26:44;7.83;;;7.17;;
8058;SDS011;4072;42.668;23.396;2023-08-21T03:29:12;9.03;;;7.60;;
8058;SDS011;4072;42.668;23.396;2023-08-21T03:31:40;7.47;;;6.87;;
8058;SDS011;4072;42.668;23.396;2023-08-21T03:34:08;7.20;;;6.47;;
8058;SDS011;4072;42.668;23.396;2023-08-21T03:36:36;8.50;;;6.73;;
8058;SDS011;4072;42.668;23.396;2023-08-21T03:39:05;8.13;;;7.33;;
8058;SDS011;4072;42.668;23.396;2023-08-21T03:41:35;8.20;;;7.47;;
8058;SDS011;4072;42.668;23.396;2023-08-21T03:44:03;8.10;;;7.30;;
8058;SDS011;4072;42.668;23.396;2023-08-21T03:46:31;7.33;;;6.63;;
8058;SDS011;4072;42.668;23.396;2023-08-21T03:49:00;7.90;;;7.13;;
8058;SDS011;4072;42.668;23.396;2023-08-21T03:51:28;9.17;;;7.17;;
8058;SDS011;4072;42.668;23.396;2023-08-21T03:53:56;10.80;;;7.67;;
8058;SDS011;4072;42.668;23.396;2023-08-21T03:56:25;7.30;;;6.60;;
8058;SDS011;4072;42.668;23.396;2023-08-21T03:58:54;6.30;;;5.80;;
8058;SDS011;4072;42.668;23.396;2023-08-21T04:01:22;34.77;;;8.60;;
8058;SDS011;4072;42.668;23.396;2023-08-21T04:03:50;6.57;;;5.97;;
8058;SDS011;4072;42.668;23.396;2023-08-21T04:06:18;10.90;;;6.83;;
8058;SDS011;4072;42.668;23.396;2023-08-21T04:08:47;7.90;;;7.20;;
8058;SDS011;4072;42.668;23.396;2023-08-21T04:11:15;7.67;;;6.23;;
8058;SDS011;4072;42.668;23.396;2023-08-21T04:13:43;6.93;;;6.33;;
8058;SDS011;4072;42.668;23.396;2023-08-21T04:16:13;7.33;;;6.00;;
8058;SDS011;4072;42.668;23.396;2023-08-21T04:18:44;6.63;;;6.03;;
8058;SDS011;4072;42.668;23.396;2023-08-21T04:21:13;6.70;;;6.07;;
8058;SDS011;4072;42.668;23.396;2023-08-21T04:23:41;7.03;;;5.67;;
8058;SDS011;4072;42.668;23.396;2023-08-21T04:26:10;6.70;;;6.13;;
8058;SDS011;4072;42.668;23.396;2023-08-21T04:28:38;6.37;;;5.77;;
8058;SDS011;4072;42.668;23.396;2023-08-21T04:31:06;6.87;;;6.10;;
8058;SDS011;4072;42.668;23.396;2023-08-21T04:33:37;6.90;;;6.23;;
8058;SDS011;4072;42.668;23.396;2023-08-21T04:36:05;7.80;;;6.37;;
8058;SDS011;4072;42.668;23.396;2023-08-21T04:38:34;6.67;;;6.07;;
8058;SDS011;4072;42.668;23.396;2023-08-21T04:41:05;7.90;;;6.13;;
8058;SDS011;4072;42.668;23.396;2023-08-21T04:43:34;9.40;;;7.40;;
8058;SDS011;4072;42.668;23.396;2023-08-21T04:46:03;7.13;;;6.47;;
8058;SDS011;4072;42.668;23.396;2023-08-21T04:48:32;8.47;;;7.20;;
8058;SDS011;4072;42.668;23.396;2023-08-21T04:51:02;11.47;;;6.40;;
8058;SDS011;4072;42.668;23.396;2023-08-21T04:53:30;7.40;;;6.80;;
8058;SDS011;4072;42.668;23.396;2023-08-21T04:55:58;7.50;;;6.73;;
8058;SDS011;4072;42.668;23.396;2023-08-21T04:58:27;8.10;;;7.03;;
8058;SDS011;4072;42.668;23.396;2023-08-21T05:00:55;8.10;;;6.70;;
8058;SDS011;4072;42.668;23.396;2023-08-21T05:03:24;9.83;;;7.27;;
8058;SDS011;4072;42.668;23.396;2023-08-21T05:05:52;10.63;;;7.43;;
8058;SDS011;4072;42.668;23.396;2023-08-21T05:08:22;8.97;;;7.83;;
8058;SDS011;4072;42.668;23.396;2023-08-21T05:10:54;9.60;;;7.13;;
8058;SDS011;4072;42.668;23.396;2023-08-21T05:13:24;9.43;;;6.77;;
8058;SDS011;4072;42.668;23.396;2023-08-21T05:15:52;7.83;;;7.13;;
8058;SDS011;4072;42.668;23.396;2023-08-21T05:18:21;9.23;;;7.40;;
8058;SDS011;4072;42.668;23.396;2023-08-21T05:20:52;7.83;;;6.97;;
8058;SDS011;4072;42.668;23.396;2023-08-21T05:23:22;8.43;;;7.22;;
8058;SDS011;4072;42.668;23.396;2023-08-21T05:25:51;12.23;;;8.35;;
8058;SDS011;4072;42.668;23.396;2023-08-21T05:28:19;8.85;;;7.32;;
8058;SDS011;4072;42.668;23.396;2023-08-21T05:30:47;11.98;;;8.25;;
8058;SDS011;4072;42.668;23.396;2023-08-21T05:33:17;9.35;;;8.45;;
8058;SDS011;4072;42.668;23.396;2023-08-21T05:35:46;11.30;;;8.63;;
8058;SDS011;4072;42.668;23.396;2023-08-21T05:38:15;8.90;;;8.10;;
8058;SDS011;4072;42.668;23.396;2023-08-21T05:40:49;9.90;;;8.90;;
8058;SDS011;4072;42.668;23.396;2023-08-21T05:43:17;11.88;;;9.73;;
8058;SDS011;4072;42.668;23.396;2023-08-21T05:45:46;11.55;;;9.27;;
8058;SDS011;4072;42.668;23.396;2023-08-21T05:48:14;12.82;;;10.05;;
8058;SDS011;4072;42.668;23.396;2023-08-21T05:50:43;15.98;;;9.07;;
8058;SDS011;4072;42.668;23.396;2023-08-21T05:53:11;16.33;;;9.57;;
8058;SDS011;4072;42.668;23.396;2023-08-21T05:55:40;13.50;;;9.65;;
8058;SDS011;4072;42.668;23.396;2023-08-21T05:58:10;12.32;;;8.88;;
8058;SDS011;4072;42.668;23.396;2023-08-21T06:00:38;9.63;;;8.07;;
8058;SDS011;4072;42.668;23.396;2023-08-21T06:03:07;12.00;;;9.68;;
8058;SDS011;4072;42.668;23.396;2023-08-21T06:05:35;10.60;;;9.50;;
8058;SDS011;4072;42.668;23.396;2023-08-21T06:08:04;12.13;;;9.60;;
8058;SDS011;4072;42.668;23.396;2023-08-21T06:10:35;11.27;;;9.18;;
8058;SDS011;4072;42.668;23.396;2023-08-21T06:13:03;11.25;;;8.88;;
8058;SDS011;4072;42.668;23.396;2023-08-21T06:15:34;12.55;;;9.10;;
8058;SDS011;4072;42.668;23.396;2023-08-21T06:18:02;10.32;;;9.00;;
8058;SDS011;4072;42.668;23.396;2023-08-21T06:20:31;12.27;;;9.27;;
8058;SDS011;4072;42.668;23.396;2023-08-21T06:22:59;15.80;;;9.48;;
8058;SDS011;4072;42.668;23.396;2023-08-21T06:25:28;12.05;;;8.45;;
8058;SDS011;4072;42.668;23.396;2023-08-21T06:27:59;9.23;;;8.25;;
8058;SDS011;4072;42.668;23.396;2023-08-21T06:30:27;12.32;;;9.30;;
8058;SDS011;4072;42.668;23.396;2023-08-21T06:32:56;15.68;;;8.40;;
8058;SDS011;4072;42.668;23.396;2023-08-21T06:35:25;12.13;;;8.82;;
8058;SDS011;4072;42.668;23.396;2023-08-21T06:37:55;11.85;;;7.80;;
8058;SDS011;4072;42.668;23.396;2023-08-21T06:40:24;9.40;;;7.75;;
8058;SDS011;4072;42.668;23.396;2023-08-21T06:42:52;9.02;;;7.05;;
8058;SDS011;4072;42.668;23.396;2023-08-21T06:45:20;8.50;;;7.70;;
8058;SDS011;4072;42.668;23.396;2023-08-21T06:47:50;12.60;;;8.35;;
8058;SDS011;4072;42.668;23.396;2023-08-21T06:50:21;9.32;;;7.70;;
8058;SDS011;4072;42.668;23.396;2023-08-21T06:52:49;9.73;;;8.20;;
8058;SDS011;4072;42.668;23.396;2023-08-21T06:55:18;14.63;;;9.50;;
8058;SDS011;4072;42.668;23.396;2023-08-21T06:57:46;9.45;;;8.15;;
8058;SDS011;4072;42.668;23.396;2023-08-21T07:00:14;11.88;;;8.27;;
8058;SDS011;4072;42.668;23.396;2023-08-21T07:02:43;9.60;;;7.72;;
8058;SDS011;4072;42.668;23.396;2023-08-21T07:05:11;10.50;;;8.15;;
8058;SDS011;4072;42.668;23.396;2023-08-21T07:07:42;11.98;;;7.65;;
8058;SDS011;4072;42.668;23.396;2023-08-21T07:10:11;12.68;;;7.68;;
8058;SDS011;4072;42.668;23.396;2023-08-21T07:12:40;10.73;;;8.23;;
8058;SDS011;4072;42.668;23.396;2023-08-21T07:15:10;9.73;;;7.72;;
8058;SDS011;4072;42.668;23.396;2023-08-21T07:17:38;11.80;;;8.25;;
8058;SDS011;4072;42.668;23.396;2023-08-21T07:20:06;9.32;;;7.97;;
8058;SDS011;4072;42.668;23.396;2023-08-21T07:22:35;12.57;;;8.57;;
8058;SDS011;4072;42.668;23.396;2023-08-21T07:25:08;9.80;;;8.35;;
8058;SDS011;4072;42.668;23.396;2023-08-21T07:27:36;11.10;;;8.68;;
8058;SDS011;4072;42.668;23.396;2023-08-21T07:30:06;14.60;;;8.25;;
8058;SDS011;4072;42.668;23.396;2023-08-21T07:32:35;8.55;;;7.15;;
8058;SDS011;4072;42.668;23.396;2023-08-21T07:35:04;15.10;;;8.32;;
8058;SDS011;4072;42.668;23.396;2023-08-21T07:37:35;7.97;;;7.13;;
8058;SDS011;4072;42.668;23.396;2023-08-21T07:40:04;9.35;;;7.43;;
8058;SDS011;4072;42.668;23.396;2023-08-21T07:42:34;9.57;;;7.82;;
8058;SDS011;4072;42.668;23.396;2023-08-21T07:45:05;11.98;;;7.75;;
8058;SDS011;4072;42.668;23.396;2023-08-21T07:47:34;10.45;;;7.78;;
8058;SDS011;4072;42.668;23.396;2023-08-21T07:50:03;10.90;;;7.55;;
8058;SDS011;4072;42.668;23.396;2023-08-21T07:52:33;8.32;;;7.25;;
8058;SDS011;4072;42.668;23.396;2023-08-21T07:55:04;10.18;;;6.43;;
8058;SDS011;4072;42.668;23.396;2023-08-21T07:57:32;9.98;;;7.00;;
8058;SDS011;4072;42.668;23.396;2023-08-21T08:00:03;11.05;;;7.35;;
8058;SDS011;4072;42.668;23.396;2023-08-21T08:02:35;7.57;;;6.68;;
8058;SDS011;4072;42.668;23.396;2023-08-21T08:05:03;9.55;;;6.70;;
8058;SDS011;4072;42.668;23.396;2023-08-21T08:07:33;7.18;;;6.35;;
8058;SDS011;4072;42.668;23.396;2023-08-21T08:10:01;8.15;;;6.07;;
8058;SDS011;4072;42.668;23.396;2023-08-21T08:12:30;8.13;;;6.43;;
8058;SDS011;4072;42.668;23.396;2023-08-21T08:15:01;13.15;;;6.32;;
8058;SDS011;4072;42.668;23.396;2023-08-21T08:17:30;8.63;;;6.88;;
8058;SDS011;4072;42.668;23.396;2023-08-21T08:19:58;7.68;;;6.88;;
8058;SDS011;4072;42.668;23.396;2023-08-21T08:22:26;10.98;;;7.05;;
8058;SDS011;4072;42.668;23.396;2023-08-21T08:24:54;6.13;;;5.63;;
8058;SDS011;4072;42.668;23.396;2023-08-21T08:27:23;6.82;;;6.22;;
8058;SDS011;4072;42.668;23.396;2023-08-21T08:29:51;7.65;;;6.07;;
8058;SDS011;4072;42.668;23.396;2023-08-21T08:32:21;6.25;;;5.60;;
8058;SDS011;4072;42.668;23.396;2023-08-21T08:34:49;7.78;;;5.50;;
8058;SDS011;4072;42.668;23.396;2023-08-21T08:37:17;7.05;;;5.35;;
8058;SDS011;4072;42.668;23.396;2023-08-21T08:39:45;7.70;;;6.47;;
8058;SDS011;4072;42.668;23.396;2023-08-21T08:42:14;9.55;;;6.47;;
8058;SDS011;4072;42.668;23.396;2023-08-21T08:44:43;8.63;;;6.32;;
8058;SDS011;4072;42.668;23.396;2023-08-21T08:47:12;6.20;;;5.60;;
8058;SDS011;4072;42.668;23.396;2023-08-21T08:49:43;8.95;;;6.03;;
8058;SDS011;4072;42.668;23.396;2023-08-21T08:52:14;10.50;;;6.28;;
8058;SDS011;4072;42.668;23.396;2023-08-21T08:54:44;7.65;;;6.18;;
8058;SDS011;4072;42.668;23.396;2023-08-21T08:57:12;6.70;;;6.07;;
8058;SDS011;4072;42.668;23.396;2023-08-21T08:59:41;8.00;;;5.95;;
8058;SDS011;4072;42.668;23.396;2023-08-21T09:02:09;6.75;;;6.13;;
8058;SDS011;4072;42.668;23.396;2023-08-21T09:04:37;10.32;;;6.43;;
8058;SDS011;4072;42.668;23.396;2023-08-21T09:07:08;7.88;;;6.07;;
8058;SDS011;4072;42.668;23.396;2023-08-21T09:09:37;7.00;;;5.65;;
8058;SDS011;4072;42.668;23.396;2023-08-21T09:12:12;5.25;;;4.60;;
8058;SDS011;4072;42.668;23.396;2023-08-21T09:14:41;5.88;;;4.80;;
8058;SDS011;4072;42.668;23.396;2023-08-21T09:17:10;6.18;;;4.60;;
8058;SDS011;4072;42.668;23.396;2023-08-21T09:19:39;5.45;;;5.00;;
8058;SDS011;4072;42.668;23.396;2023-08-21T09:22:10;5.82;;;5.20;;
8058;SDS011;4072;42.668;23.396;2023-08-21T09:24:59;7.35;;;5.55;;
8058;SDS011;4072;42.668;23.396;2023-08-21T09:27:33;8.05;;;5.72;;
8058;SDS011;4072;42.668;23.396;2023-08-21T09:30:03;8.63;;;5.53;;
8058;SDS011;4072;42.668;23.396;2023-08-21T09:32:32;6.40;;;5.68;;
8058;SDS011;4072;42.668;23.396;2023-08-21T09:35:22;6.55;;;5.53;;
8058;SDS011;4072;42.668;23.396;2023-08-21T09:37:52;5.90;;;5.30;;
8058;SDS011;4072;42.668;23.396;2023-08-21T09:40:23;5.30;;;4.85;;
8058;SDS011;4072;42.668;23.396;2023-08-21T09:42:51;5.45;;;4.85;;
8058;SDS011;4072;42.668;23.396;2023-08-21T09:45:21;5.78;;;4.95;;
8058;SDS011;4072;42.668;23.396;2023-08-21T09:47:50;7.55;;;5.15;;
8058;SDS011;4072;42.668;23.396;2023-08-21T09:50:21;5.28;;;4.82;;
8058;SDS011;4072;42.668;23.396;2023-08-21T09:52:52;11.95;;;5.00;;
8058;SDS011;4072;42.668;23.396;2023-08-21T09:55:21;5.05;;;4.65;;
8058;SDS011;4072;42.668;23.396;2023-08-21T09:57:49;6.90;;;5.07;;
8058;SDS011;4072;42.668;23.396;2023-08-21T10:00:26;6.43;;;5.65;;
8058;SDS011;4072;42.668;23.396;2023-08-21T10:02:58;4.75;;;4.35;;
8058;SDS011;4072;42.668;23.396;2023-08-21T10:05:29;5.20;;;4.75;;
8058;SDS011;4072;42.668;23.396;2023-08-21T10:08:02;5.45;;;4.97;;
8058;SDS011;4072;42.668;23.396;2023-08-21T10:10:31;6.75;;;5.05;;
8058;SDS011;4072;42.668;23.396;2023-08-21T10:13:01;10.50;;;5.60;;
8058;SDS011;4072;42.668;23.396;2023-08-21T10:15:30;5.40;;;4.90;;
8058;SDS011;4072;42.668;23.396;2023-08-21T10:20:47;4.60;;;4.20;;
8058;SDS011;4072;42.668;23.396;2023-08-21T10:23:27;5.05;;;4.53;;
8058;SDS011;4072;42.668;23.396;2023-08-21T10:25:58;9.85;;;5.10;;
8058;SDS011;4072;42.668;23.396;2023-08-21T10:28:44;5.88;;;5.00;;
8058;SDS011;4072;42.668;23.396;2023-08-21T10:31:30;5.05;;;4.60;;
8058;SDS011;4072;42.668;23.396;2023-08-21T10:34:03;7.57;;;4.95;;
8058;SDS011;4072;42.668;23.396;2023-08-21T10:39:36;6.85;;;4.82;;
8058;SDS011;4072;42.668;23.396;2023-08-21T10:42:07;6.03;;;4.90;;
8058;SDS011;4072;42.668;23.396;2023-08-21T10:44:47;5.43;;;4.35;;
8058;SDS011;4072;42.668;23.396;2023-08-21T10:47:19;6.88;;;4.75;;
8058;SDS011;4072;42.668;23.396;2023-08-21T10:49:51;8.30;;;5.03;;
8058;SDS011;4072;42.668;23.396;2023-08-21T10:52:21;7.50;;;5.00;;
8058;SDS011;4072;42.668;23.396;2023-08-21T10:54:54;5.57;;;4.70;;
8058;SDS011;4072;42.668;23.396;2023-08-21T10:57:23;7.15;;;5.03;;
8058;SDS011;4072;42.668;23.396;2023-08-21T10:59:52;5.68;;;5.10;;
8058;SDS011;4072;42.668;23.396;2023-08-21T11:02:22;5.75;;;4.55;;
8058;SDS011;4072;42.668;23.396;2023-08-21T11:04:51;7.30;;;6.50;;
8058;SDS011;4072;42.668;23.396;2023-08-21T11:07:21;10.68;;;6.38;;
8058;SDS011;4072;42.668;23.396;2023-08-21T11:09:49;5.95;;;5.35;;
8058;SDS011;4072;42.668;23.396;2023-08-21T11:12:21;7.53;;;5.43;;
8058;SDS011;4072;42.668;23.396;2023-08-21T11:14:51;5.82;;;5.22;;
8058;SDS011;4072;42.668;23.396;2023-08-21T11:17:20;5.05;;;4.55;;
8058;SDS011;4072;42.668;23.396;2023-08-21T11:19:50;6.20;;;5.18;;
8058;SDS011;4072;42.668;23.396;2023-08-21T11:22:18;5.20;;;4.70;;
8058;SDS011;4072;42.668;23.396;2023-08-21T11:24:47;7.65;;;4.70;;
8058;SDS011;4072;42.668;23.396;2023-08-21T11:27:17;7.47;;;5.28;;
8058;SDS011;4072;42.668;23.396;2023-08-21T11:29:51;5.47;;;4.97;;
8058;SDS011;4072;42.668;23.396;2023-08-21T11:32:20;6.22;;;4.55;;
8058;SDS011;4072;42.668;23.396;2023-08-21T11:34:50;7.22;;;4.90;;
8058;SDS011;4072;42.668;23.396;2023-08-21T11:37:20;5.25;;;4.78;;
8058;SDS011;4072;42.668;23.396;2023-08-21T11:39:50;4.35;;;3.95;;
8058;SDS011;4072;42.668;23.396;2023-08-21T11:42:21;6.65;;;4.38;;
8058;SDS011;4072;42.668;23.396;2023-08-21T11:44:56;5.65;;;3.83;;
8058;SDS011;4072;42.668;23.396;2023-08-21T11:47:29;6.10;;;4.70;;
8058;SDS011;4072;42.668;23.396;2023-08-21T11:50:01;6.03;;;4.80;;
8058;SDS011;4072;42.668;23.396;2023-08-21T11:52:31;8.00;;;4.70;;
8058;SDS011;4072;42.668;23.396;2023-08-21T11:55:06;4.57;;;4.28;;
8058;SDS011;4072;42.668;23.396;2023-08-21T11:57:46;6.93;;;4.63;;
8058;SDS011;4072;42.668;23.396;2023-08-21T12:00:16;4.68;;;4.22;;
8058;SDS011;4072;42.668;23.396;2023-08-21T12:02:54;9.15;;;4.30;;
8058;SDS011;4072;42.668;23.396;2023-08-21T12:05:24;5.22;;;4.65;;
8058;SDS011;4072;42.668;23.396;2023-08-21T12:07:52;5.35;;;4.85;;
8058;SDS011;4072;42.668;23.396;2023-08-21T12:10:23;4.88;;;4.18;;
8058;SDS011;4072;42.668;23.396;2023-08-21T12:12:56;4.95;;;4.50;;
8058;SDS011;4072;42.668;23.396;2023-08-21T12:15:25;5.65;;;4.57;;
8058;SDS011;4072;42.668;23.396;2023-08-21T12:17:53;4.70;;;4.25;;
8058;SDS011;4072;42.668;23.396;2023-08-21T12:20:22;4.82;;;4.43;;
8058;SDS011;4072;42.668;23.396;2023-08-21T12:22:51;5.38;;;4.72;;
8058;SDS011;4072;42.668;23.396;2023-08-21T12:25:20;5.40;;;4.28;;
8058;SDS011;4072;42.668;23.396;2023-08-21T12:27:49;4.78;;;4.38;;
8058;SDS011;4072;42.668;23.396;2023-08-21T12:30:36;6.70;;;4.50;;
8058;SDS011;4072;42.668;23.396;2023-08-21T12:33:04;9.32;;;4.57;;
8058;SDS011;4072;42.668;23.396;2023-08-21T12:35:50;6.65;;;4.10;;
8058;SDS011;4072;42.668;23.396;2023-08-21T12:38:19;6.45;;;4.65;;
8058;SDS011;4072;42.668;23.396;2023-08-21T12:40:49;6.18;;;5.00;;
8058;SDS011;4072;42.668;23.396;2023-08-21T12:43:18;5.22;;;4.82;;
8058;SDS011;4072;42.668;23.396;2023-08-21T12:45:48;6.07;;;5.18;;
8058;SDS011;4072;42.668;23.396;2023-08-21T12:48:16;6.18;;;5.25;;
8058;SDS011;4072;42.668;23.396;2023-08-21T12:50:45;6.70;;;4.88;;
8058;SDS011;4072;42.668;23.396;2023-08-21T12:53:13;6.53;;;4.55;;
8058;SDS011;4072;42.668;23.396;2023-08-21T12:55:42;5.38;;;4.43;;
8058;SDS011;4072;42.668;23.396;2023-08-21T12:58:10;12.48;;;4.95;;
8058;SDS011;4072;42.668;23.396;2023-08-21T13:00:40;5.20;;;4.70;;
8058;SDS011;4072;42.668;23.396;2023-08-21T13:03:10;5.50;;;5.03;;
8058;SDS011;4072;42.668;23.396;2023-08-21T13:05:39;5.80;;;5.00;;
8058;SDS011;4072;42.668;23.396;2023-08-21T13:08:08;4.85;;;4.40;;
8058;SDS011;4072;42.668;23.396;2023-08-21T13:10:37;6.10;;;4.70;;
8058;SDS011;4072;42.668;23.396;2023-08-21T13:13:05;5.22;;;4.70;;
8058;SDS011;4072;42.668;23.396;2023-08-21T13:15:40;7.15;;;5.20;;
8058;SDS011;4072;42.668;23.396;2023-08-21T13:18:12;7.40;;;4.82;;
8058;SDS011;4072;42.668;23.396;2023-08-21T13:20:41;5.72;;;4.70;;
8058;SDS011;4072;42.668;23.396;2023-08-21T13:23:09;4.45;;;4.05;;
8058;SDS011;4072;42.668;23.396;2023-08-21T13:25:38;4.57;;;4.25;;
8058;SDS011;4072;42.668;23.396;2023-08-21T13:28:07;6.10;;;4.53;;
8058;SDS011;4072;42.668;23.396;2023-08-21T13:30:36;6.63;;;4.53;;
8058;SDS011;4072;42.668;23.396;2023-08-21T13:33:05;5.25;;;4.75;;
8058;SDS011;4072;42.668;23.396;2023-08-21T13:35:36;6.05;;;4.68;;
8058;SDS011;4072;42.668;23.396;2023-08-21T13:38:09;5.28;;;4.78;;
8058;SDS011;4072;42.668;23.396;2023-08-21T13:40:40;5.15;;;4.53;;
8058;SDS011;4072;42.668;23.396;2023-08-21T13:43:08;5.07;;;4.30;;
8058;SDS011;4072;42.668;23.396;2023-08-21T13:45:38;5.68;;;4.85;;
8058;SDS011;4072;42.668;23.396;2023-08-21T13:48:07;10.75;;;4.75;;
8058;SDS011;4072;42.668;23.396;2023-08-21T13:50:37;5.38;;;4.97;;
8058;SDS011;4072;42.668;23.396;2023-08-21T13:53:05;6.05;;;4.45;;
8058;SDS011;4072;42.668;23.396;2023-08-21T13:55:34;4.95;;;4.45;;
8058;SDS011;4072;42.668;23.396;2023-08-21T13:58:02;4.78;;;4.30;;
8058;SDS011;4072;42.668;23.396;2023-08-21T14:00:31;4.70;;;4.18;;
8058;SDS011;4072;42.668;23.396;2023-08-21T14:02:59;7.68;;;5.28;;
8058;SDS011;4072;42.668;23.396;2023-08-21T14:05:28;5.07;;;4.68;;
8058;SDS011;4072;42.668;23.396;2023-08-21T14:08:00;5.65;;;5.15;;
8058;SDS011;4072;42.668;23.396;2023-08-21T14:10:31;5.82;;;5.22;;
8058;SDS011;4072;42.668;23.396;2023-08-21T14:13:00;4.85;;;4.45;;
8058;SDS011;4072;42.668;23.396;2023-08-21T14:15:33;5.53;;;4.55;;
8058;SDS011;4072;42.668;23.396;2023-08-21T14:18:02;4.80;;;4.40;;
8058;SDS011;4072;42.668;23.396;2023-08-21T14:20:31;7.18;;;4.95;;
8058;SDS011;4072;42.668;23.396;2023-08-21T14:23:01;4.80;;;4.40;;
8058;SDS011;4072;42.668;23.396;2023-08-21T14:25:30;6.25;;;4.95;;
8058;SDS011;4072;42.668;23.396;2023-08-21T14:27:59;5.25;;;4.75;;
8058;SDS011;4072;42.668;23.396;2023-08-21T14:30:28;7.32;;;4.35;;
8058;SDS011;4072;42.668;23.396;2023-08-21T14:32:57;5.13;;;4.63;;
8058;SDS011;4072;42.668;23.396;2023-08-21T14:35:25;5.47;;;4.97;;
8058;SDS011;4072;42.668;23.396;2023-08-21T14:37:53;6.45;;;4.95;;
8058;SDS011;4072;42.668;23.396;2023-08-21T14:40:24;4.85;;;4.43;;
8058;SDS011;4072;42.668;23.396;2023-08-21T14:42:52;5.78;;;5.15;;
8058;SDS011;4072;42.668;23.396;2023-08-21T14:45:21;5.68;;;5.10;;
8058;SDS011;4072;42.668;23.396;2023-08-21T14:47:49;5.63;;;4.50;;
8058;SDS011;4072;42.668;23.396;2023-08-21T14:50:18;6.28;;;5.00;;
8058;SDS011;4072;42.668;23.396;2023-08-21T14:52:46;6.65;;;4.50;;
8058;SDS011;4072;42.668;23.396;2023-08-21T14:55:15;6.72;;;5.63;;
8058;SDS011;4072;42.668;23.396;2023-08-21T14:57:46;6.45;;;4.75;;
8058;SDS011;4072;42.668;23.396;2023-08-21T15:00:14;5.88;;;4.75;;
8058;SDS011;4072;42.668;23.396;2023-08-21T15:02:43;5.78;;;5.18;;
8058;SDS011;4072;42.668;23.396;2023-08-21T15:05:11;5.43;;;4.93;;
8058;SDS011;4072;42.668;23.396;2023-08-21T15:07:45;6.18;;;5.38;;
8058;SDS011;4072;42.668;23.396;2023-08-21T15:10:13;7.43;;;6.32;;
8058;SDS011;4072;42.668;23.396;2023-08-21T15:12:42;5.60;;;5.00;;
8058;SDS011;4072;42.668;23.396;2023-08-21T15:15:12;6.65;;;5.40;;
8058;SDS011;4072;42.668;23.396;2023-08-21T15:17:45;7.03;;;5.13;;